Time;durP1;ratioP1;P1;durP2;ratioP2;P2;SDS_P1;SDS_P2;PMS_P1;PMS_P2;Temp;Humidity;BMP_temperature;BMP_pressure;BME280_temperature;BME280_humidity;BME280_pressure;Samples;Min_cycle;Max_cycle;Signal;HPM_P1;HPM_P2
2021/12/14 00:01:41;;;;;;;;;;;24.20;51.70;;;;;;1566951;75;857;-68
2021/12/14 00:03:44;;;;;;;;;;;24.20;51.70;;;;;;1558887;75;718;-68
2021/12/14 00:05:46;;;;;;;;;;;24.10;51.80;;;;;;1558513;76;777;-69
2021/12/14 00:07:48;;;;;;;;;;;24.20;51.80;;;;;;1558242;76;760;-69
2021/12/14 00:09:58;;;;;;;;;;;24.20;51.70;;;;;;1532508;77;1957;-69
2021/12/14 00:16:25;;;;;;;;;;;24.10;51.80;;;;;;1578833;75;816;-70
2021/12/14 00:18:27;;;;;;;;;;;24.10;51.80;;;;;;1570016;74;1156;-71
2021/12/14 00:20:30;;;;;;;;;;;24.10;51.80;;;;;;1573539;75;733;-68
2021/12/14 00:24:36;;;;;;;;;;;24.10;51.80;;;;;;1554319;75;861;-68
2021/12/14 00:26:42;;;;;;;;;;;24.20;51.80;;;;;;1565774;75;690;-69
2021/12/14 00:28:44;;;;;;;;;;;24.10;51.80;;;;;;1559054;74;1137;-69
2021/12/14 00:30:46;;;;;;;;;;;24.20;51.80;;;;;;1570644;75;1934;-68
2021/12/14 00:32:48;;;;;;;;;;;24.20;51.80;;;;;;1564759;75;754;-68
2021/12/14 00:34:51;;;;;;;;;;;24.20;51.70;;;;;;1577115;75;685;-70
2021/12/14 00:36:53;;;;;;;;;;;24.20;51.70;;;;;;1576430;74;685;-69
2021/12/14 00:38:57;;;;;;;;;;;24.20;51.70;;;;;;1576170;75;1131;-68
2021/12/14 00:41:00;;;;;;;;;;;24.20;51.70;;;;;;1572458;75;819;-68
2021/12/14 00:43:02;;;;;;;;;;;24.10;51.70;;;;;;1565510;75;660;-68
2021/12/14 00:45:04;;;;;;;;;;;24.10;51.70;;;;;;1571491;74;717;-68
2021/12/14 00:47:06;;;;;;;;;;;24.10;51.70;;;;;;1562863;75;691;-68
2021/12/14 00:49:08;;;;;;;;;;;24.20;51.70;;;;;;1568745;74;1917;-65
2021/12/14 00:51:10;;;;;;;;;;;24.20;51.70;;;;;;1565996;75;920;-68
2021/12/14 00:53:12;;;;;;;;;;;24.10;51.70;;;;;;1568094;75;721;-68
2021/12/14 00:55:15;;;;;;;;;;;24.10;51.70;;;;;;1567253;75;712;-68
2021/12/14 00:57:16;;;;;;;;;;;24.10;51.70;;;;;;1572627;75;758;-68
2021/12/14 00:59:19;;;;;;;;;;;24.20;51.70;;;;;;1572967;75;1124;-68
2021/12/14 01:01:25;;;;;;;;;;;24.00;51.60;;;;;;1561127;75;715;-68
2021/12/14 01:03:27;;;;;;;;;;;24.10;51.80;;;;;;1568011;75;692;-67
2021/12/14 01:05:31;;;;;;;;;;;24.10;51.80;;;;;;1573451;75;679;-68
2021/12/14 01:07:33;;;;;;;;;;;24.10;51.70;;;;;;1565792;74;1918;-68
2021/12/14 01:09:36;;;;;;;;;;;24.10;51.80;;;;;;1567604;75;1971;-68
2021/12/14 01:11:42;;;;;;;;;;;24.10;51.80;;;;;;1572652;75;797;-68
2021/12/14 01:13:50;;;;;;;;;;;24.00;51.60;;;;;;1569340;75;1899;-69
2021/12/14 01:16:01;;;;;;;;;;;24.10;51.80;;;;;;1556017;74;1734;-70
2021/12/14 01:18:14;;;;;;;;;;;24.00;51.60;;;;;;1571903;74;1681;-68
2021/12/14 01:20:07;;;;;;;;;;;24.10;51.80;;;;;;1562395;75;1900;-68
2021/12/14 01:22:17;;;;;;;;;;;24.10;51.80;;;;;;1571221;75;787;-68
2021/12/14 01:24:35;;;;;;;;;;;24.00;51.70;;;;;;1572379;75;1469;-68
2021/12/14 01:26:25;;;;;;;;;;;24.10;51.80;;;;;;1554024;74;1519;-68
2021/12/14 01:28:28;;;;;;;;;;;24.00;51.70;;;;;;1571645;75;1112;-67
2021/12/14 01:30:41;;;;;;;;;;;24.00;51.70;;;;;;1576875;75;1953;-68
2021/12/14 01:32:44;;;;;;;;;;;24.00;51.70;;;;;;1573789;75;1596;-66
2021/12/14 01:34:45;;;;;;;;;;;24.00;51.80;;;;;;1563916;75;1545;-68
2021/12/14 01:36:51;;;;;;;;;;;24.10;51.90;;;;;;1555048;74;677;-68
2021/12/14 01:39:10;;;;;;;;;;;24.10;52.00;;;;;;1570406;75;1579;-69
2021/12/14 01:40:57;;;;;;;;;;;24.20;52.00;;;;;;1565003;75;1660;-68
2021/12/14 01:42:59;;;;;;;;;;;24.10;52.00;;;;;;1563601;75;1999;-69
2021/12/14 01:45:09;;;;;;;;;;;24.10;52.00;;;;;;1568080;74;718;-70
2021/12/14 01:47:12;;;;;;;;;;;24.10;52.10;;;;;;1571785;75;774;-70
2021/12/14 01:49:14;;;;;;;;;;;24.10;52.20;;;;;;1569271;74;1174;-70
2021/12/14 01:51:16;;;;;;;;;;;24.10;52.20;;;;;;1570918;75;1926;-70
2021/12/14 01:53:20;;;;;;;;;;;24.10;52.20;;;;;;1568747;75;741;-69
2021/12/14 01:55:23;;;;;;;;;;;24.00;52.10;;;;;;1572357;75;1674;-72
2021/12/14 01:57:25;;;;;;;;;;;24.10;52.20;;;;;;1573607;75;610;-71
2021/12/14 01:59:34;;;;;;;;;;;24.10;52.20;;;;;;1546951;77;1134;-71
2021/12/14 02:01:57;;;;;;;;;;;24.10;52.20;;;;;;1568947;75;1594;-71
2021/12/14 02:03:36;;;;;;;;;;;24.10;52.20;;;;;;1562990;75;1420;-70
2021/12/14 02:05:39;;;;;;;;;;;24.10;52.20;;;;;;1560150;75;724;-71
2021/12/14 02:07:41;;;;;;;;;;;24.10;52.20;;;;;;1567143;75;1836;-69
2021/12/14 02:09:43;;;;;;;;;;;24.00;52.10;;;;;;1573714;75;1953;-70
2021/12/14 02:11:47;;;;;;;;;;;24.10;52.10;;;;;;1573995;75;768;-71
2021/12/14 02:13:49;;;;;;;;;;;24.20;52.20;;;;;;1572673;75;753;-68
2021/12/14 02:15:51;;;;;;;;;;;24.10;52.30;;;;;;1570797;75;764;-68
2021/12/14 02:17:53;;;;;;;;;;;24.00;52.10;;;;;;1566759;74;758;-69
2021/12/14 02:19:55;;;;;;;;;;;24.20;52.20;;;;;;1573563;75;1147;-68
2021/12/14 02:21:57;;;;;;;;;;;24.10;52.20;;;;;;1567814;75;809;-69
2021/12/14 02:23:59;;;;;;;;;;;24.10;52.20;;;;;;1563071;75;713;-69
2021/12/14 02:26:02;;;;;;;;;;;24.10;52.20;;;;;;1570980;74;806;-67
2021/12/14 02:28:05;;;;;;;;;;;24.10;52.20;;;;;;1568044;75;745;-67
2021/12/14 02:30:09;;;;;;;;;;;24.10;52.30;;;;;;1571053;75;1944;-68
2021/12/14 02:32:12;;;;;;;;;;;24.10;52.30;;;;;;1572806;75;720;-67
2021/12/14 02:34:14;;;;;;;;;;;24.00;52.10;;;;;;1570871;75;804;-68
2021/12/14 02:36:23;;;;;;;;;;;24.10;52.30;;;;;;1573501;75;788;-69
2021/12/14 02:38:26;;;;;;;;;;;24.10;52.20;;;;;;1573466;75;1784;-68
2021/12/14 02:40:53;;;;;;;;;;;24.10;52.20;;;;;;1591827;72;2079;-63
2021/12/14 02:42:35;;;;;;;;;;;24.10;52.20;;;;;;1584426;74;1453;-64
2021/12/14 02:44:37;;;;;;;;;;;24.00;52.10;;;;;;1594321;74;752;-64
2021/12/14 02:46:40;;;;;;;;;;;24.00;52.00;;;;;;1596070;74;669;-64
2021/12/14 02:48:44;;;;;;;;;;;24.10;52.20;;;;;;1592545;74;697;-64
2021/12/14 02:50:46;;;;;;;;;;;24.10;52.20;;;;;;1615669;73;1952;-64
2021/12/14 02:52:48;;;;;;;;;;;24.10;52.10;;;;;;1601759;73;792;-64
2021/12/14 02:54:52;;;;;;;;;;;24.10;52.10;;;;;;1602793;72;795;-64
2021/12/14 02:56:55;;;;;;;;;;;24.10;52.10;;;;;;1602066;74;671;-64
2021/12/14 02:58:59;;;;;;;;;;;24.00;51.90;;;;;;1603681;74;1166;-63
2021/12/14 03:01:01;;;;;;;;;;;24.00;51.90;;;;;;1600692;73;1837;-65
2021/12/14 03:03:04;;;;;;;;;;;24.00;52.10;;;;;;1606765;72;794;-65
2021/12/14 03:05:20;;;;;;;;;;;24.00;52.10;;;;;;1602049;73;832;-64
2021/12/14 03:07:24;;;;;;;;;;;24.00;52.00;;;;;;1602467;74;859;-65
2021/12/14 03:09:52;;;;;;;;;;;24.00;52.10;;;;;;1602371;74;1123;-64
2021/12/14 03:11:43;;;;;;;;;;;24.00;52.00;;;;;;1600039;74;1930;-67
2021/12/14 03:13:46;;;;;;;;;;;24.00;52.00;;;;;;1593886;74;769;-67
2021/12/14 03:15:52;;;;;;;;;;;24.00;52.10;;;;;;1603290;73;705;-68
2021/12/14 03:17:55;;;;;;;;;;;24.00;52.10;;;;;;1593860;72;1696;-68
2021/12/14 03:19:57;;;;;;;;;;;24.10;52.20;;;;;;1587459;72;1143;-69
2021/12/14 03:21:59;;;;;;;;;;;24.10;52.10;;;;;;1594965;72;784;-69
2021/12/14 03:24:02;;;;;;;;;;;24.10;52.10;;;;;;1598442;73;769;-68
2021/12/14 03:26:05;;;;;;;;;;;24.20;52.10;;;;;;1603646;72;723;-68
2021/12/14 03:28:07;;;;;;;;;;;24.20;52.00;;;;;;1603296;73;740;-69
2021/12/14 03:30:19;;;;;;;;;;;24.20;51.90;;;;;;1609113;72;1944;-68
2021/12/14 03:32:21;;;;;;;;;;;24.20;52.00;;;;;;1601185;74;1899;-66
2021/12/14 03:34:27;;;;;;;;;;;24.20;51.90;;;;;;1600334;73;827;-68
2021/12/14 03:36:30;;;;;;;;;;;24.20;51.90;;;;;;1603670;73;734;-70
2021/12/14 03:38:36;;;;;;;;;;;24.20;51.80;;;;;;1601742;72;724;-68
2021/12/14 03:40:38;;;;;;;;;;;24.20;51.80;;;;;;1603505;74;1100;-69
2021/12/14 03:42:41;;;;;;;;;;;24.30;51.80;;;;;;1593114;74;714;-68
2021/12/14 03:44:45;;;;;;;;;;;24.30;51.70;;;;;;1602687;74;778;-70
2021/12/14 03:46:49;;;;;;;;;;;24.40;51.70;;;;;;1586483;74;1830;-69
2021/12/14 03:48:51;;;;;;;;;;;24.40;51.70;;;;;;1601260;74;1146;-69
2021/12/14 03:50:53;;;;;;;;;;;24.30;51.80;;;;;;1603087;73;1936;-70
2021/12/14 03:52:54;;;;;;;;;;;24.30;51.70;;;;;;1606296;73;780;-70
2021/12/14 03:54:57;;;;;;;;;;;24.30;51.70;;;;;;1619505;72;803;-67
2021/12/14 03:56:59;;;;;;;;;;;24.30;51.70;;;;;;1602359;72;823;-68
2021/12/14 03:59:01;;;;;;;;;;;24.40;51.70;;;;;;1603704;73;1126;-68
2021/12/14 04:01:04;;;;;;;;;;;24.40;51.60;;;;;;1601201;73;750;-68
2021/12/14 04:03:08;;;;;;;;;;;24.40;51.50;;;;;;1603059;73;1776;-66
2021/12/14 04:05:12;;;;;;;;;;;24.40;51.60;;;;;;1596513;73;803;-66
2021/12/14 04:07:14;;;;;;;;;;;24.40;51.50;;;;;;1604420;73;726;-67
2021/12/14 04:09:16;;;;;;;;;;;24.40;51.60;;;;;;1603813;73;1099;-67
2021/12/14 04:11:18;;;;;;;;;;;24.40;51.50;;;;;;1602953;73;1934;-67
2021/12/14 04:13:21;;;;;;;;;;;24.40;51.50;;;;;;1598978;74;665;-67
2021/12/14 04:15:23;;;;;;;;;;;24.40;51.70;;;;;;1603683;73;784;-68
2021/12/14 04:17:25;;;;;;;;;;;24.30;51.70;;;;;;1602476;73;867;-69
2021/12/14 04:19:29;;;;;;;;;;;24.40;51.80;;;;;;1602915;73;1115;-70
2021/12/14 04:21:32;;;;;;;;;;;24.20;51.80;;;;;;1601815;74;1730;-71
2021/12/14 04:23:35;;;;;;;;;;;24.40;51.90;;;;;;1603748;73;675;-70
2021/12/14 04:25:37;;;;;;;;;;;24.30;51.80;;;;;;1603552;73;707;-67
2021/12/14 04:27:39;;;;;;;;;;;24.30;51.90;;;;;;1602119;73;770;-67
2021/12/14 04:29:41;;;;;;;;;;;24.20;52.00;;;;;;1582856;74;1192;-67
2021/12/14 04:31:43;;;;;;;;;;;24.20;52.20;;;;;;1601774;73;1926;-67
2021/12/14 04:33:46;;;;;;;;;;;24.10;52.30;;;;;;1601276;74;742;-66
2021/12/14 04:35:48;;;;;;;;;;;24.00;52.30;;;;;;1600089;73;711;-68
2021/12/14 04:37:51;;;;;;;;;;;24.00;52.50;;;;;;1603445;74;768;-67
2021/12/14 04:40:20;;;;;;;;;;;23.90;52.60;;;;;;1601857;73;1139;-67
2021/12/14 04:54:03;;;;;;;;;;;23.80;53.20;;;;;;1585860;73;1640;-67
2021/12/14 04:56:05;;;;;;;;;;;23.70;53.30;;;;;;1602507;74;741;-69
2021/12/14 04:58:07;;;;;;;;;;;23.90;53.30;;;;;;1591168;74;743;-67
2021/12/14 05:00:17;;;;;;;;;;;23.80;53.20;;;;;;1602834;74;1115;-68
2021/12/14 05:02:23;;;;;;;;;;;23.80;53.20;;;;;;1591770;74;726;-68
2021/12/14 05:04:26;;;;;;;;;;;23.80;53.30;;;;;;1598350;74;1786;-67
2021/12/14 05:06:43;;;;;;;;;;;23.80;53.40;;;;;;1602086;73;735;-63
2021/12/14 05:10:56;;;;;;;;;;;23.90;53.50;;;;;;1603111;73;1937;-63
2021/12/14 05:12:58;;;;;;;;;;;24.00;53.10;;;;;;1593630;73;775;-62
2021/12/14 05:15:01;;;;;;;;;;;24.20;52.80;;;;;;1601271;74;766;-64
2021/12/14 05:17:04;;;;;;;;;;;24.30;52.50;;;;;;1594921;74;816;-63
2021/12/14 05:19:07;;;;;;;;;;;24.30;52.10;;;;;;1595629;73;1123;-64
2021/12/14 05:21:08;;;;;;;;;;;24.40;52.00;;;;;;1603527;74;743;-63
2021/12/14 05:23:12;;;;;;;;;;;24.50;52.00;;;;;;1601949;74;769;-63
2021/12/14 05:25:24;;;;;;;;;;;24.40;51.80;;;;;;1603335;74;814;-62
2021/12/14 05:27:28;;;;;;;;;;;24.40;51.80;;;;;;1600909;73;956;-63
2021/12/14 05:29:30;;;;;;;;;;;24.50;51.70;;;;;;1616661;72;1099;-62
2021/12/14 05:31:32;;;;;;;;;;;24.40;51.60;;;;;;1605657;72;1939;-62
2021/12/14 05:33:34;;;;;;;;;;;24.40;51.60;;;;;;1603645;74;759;-63
2021/12/14 05:35:37;;;;;;;;;;;24.40;51.60;;;;;;1594738;74;784;-62
2021/12/14 05:37:46;;;;;;;;;;;24.40;51.60;;;;;;1603509;74;659;-64
2021/12/14 05:40:02;;;;;;;;;;;24.40;51.70;;;;;;1602934;73;1616;-62
2021/12/14 05:44:13;;;;;;;;;;;24.40;51.50;;;;;;1601253;73;878;-64
2021/12/14 05:46:16;;;;;;;;;;;24.40;51.50;;;;;;1603341;74;736;-62
2021/12/14 05:48:22;;;;;;;;;;;24.40;51.50;;;;;;1600329;73;1481;-63
2021/12/14 05:50:25;;;;;;;;;;;24.40;51.50;;;;;;1603722;73;1140;-62
2021/12/14 05:52:28;;;;;;;;;;;24.40;51.50;;;;;;1600908;73;1933;-62
2021/12/14 05:54:30;;;;;;;;;;;24.40;51.40;;;;;;1599661;72;717;-62
2021/12/14 05:56:32;;;;;;;;;;;24.30;51.30;;;;;;1599072;74;764;-62
2021/12/14 05:58:34;;;;;;;;;;;24.40;51.30;;;;;;1600630;74;706;-62
2021/12/14 06:00:36;;;;;;;;;;;24.50;51.40;;;;;;1601898;74;1075;-63
2021/12/14 06:02:38;;;;;;;;;;;24.40;51.30;;;;;;1603463;74;788;-61
2021/12/14 06:04:41;;;;;;;;;;;24.40;51.30;;;;;;1602052;74;708;-62
2021/12/14 06:06:45;;;;;;;;;;;24.50;51.30;;;;;;1601083;74;781;-64
2021/12/14 06:08:47;;;;;;;;;;;24.50;51.30;;;;;;1603247;74;875;-63
2021/12/14 06:10:48;;;;;;;;;;;24.50;51.30;;;;;;1600554;74;1140;-62
2021/12/14 06:12:50;;;;;;;;;;;24.50;51.00;;;;;;1603156;74;1942;-63
2021/12/14 06:14:55;;;;;;;;;;;24.50;51.10;;;;;;1603083;74;932;-64
2021/12/14 06:17:00;;;;;;;;;;;24.50;51.10;;;;;;1603010;74;1559;-64
2021/12/14 06:19:15;;;;;;;;;;;24.50;51.30;;;;;;1600397;73;1139;-63
2021/12/14 06:21:18;;;;;;;;;;;24.40;51.10;;;;;;1602394;73;2119;-65
2021/12/14 06:23:24;;;;;;;;;;;24.30;51.20;;;;;;1603486;74;755;-64
2021/12/14 06:25:27;;;;;;;;;;;24.30;51.10;;;;;;1601916;73;680;-65
2021/12/14 06:27:29;;;;;;;;;;;24.30;51.30;;;;;;1602317;73;761;-64
2021/12/14 06:29:32;;;;;;;;;;;24.30;51.30;;;;;;1597785;72;1153;-64
2021/12/14 06:31:34;;;;;;;;;;;24.20;51.30;;;;;;1601144;74;1939;-62
2021/12/14 06:33:36;;;;;;;;;;;24.20;51.30;;;;;;1601207;73;741;-65
2021/12/14 06:35:47;;;;;;;;;;;24.20;51.30;;;;;;1598931;73;762;-66
2021/12/14 06:38:21;;;;;;;;;;;24.20;51.40;;;;;;1592043;74;824;-65
2021/12/14 06:40:12;;;;;;;;;;;24.20;51.50;;;;;;1595956;73;1618;-63
2021/12/14 06:42:14;;;;;;;;;;;24.20;51.60;;;;;;1602793;73;799;-64
2021/12/14 06:44:16;;;;;;;;;;;24.20;51.60;;;;;;1601306;73;761;-64
2021/12/14 06:46:19;;;;;;;;;;;24.10;51.50;;;;;;1566012;76;1081;-63
2021/12/14 06:48:24;;;;;;;;;;;24.10;51.50;;;;;;1600780;74;1697;-63
2021/12/14 06:50:27;;;;;;;;;;;24.20;51.50;;;;;;1602805;74;1906;-65
2021/12/14 06:52:29;;;;;;;;;;;24.20;51.40;;;;;;1603450;73;1944;-64
2021/12/14 06:54:31;;;;;;;;;;;24.20;51.30;;;;;;1603592;73;697;-63
2021/12/14 06:56:33;;;;;;;;;;;24.20;51.20;;;;;;1602073;73;822;-63
2021/12/14 06:58:38;;;;;;;;;;;24.20;51.10;;;;;;1600617;74;883;-64
2021/12/14 07:00:41;;;;;;;;;;;24.10;51.10;;;;;;1601778;73;1095;-63
2021/12/14 07:02:49;;;;;;;;;;;24.10;51.00;;;;;;1601543;74;771;-63
2021/12/14 07:04:51;;;;;;;;;;;24.20;51.00;;;;;;1595877;74;793;-63
2021/12/14 07:06:57;;;;;;;;;;;24.10;51.00;;;;;;1602170;74;776;-63
2021/12/14 07:09:01;;;;;;;;;;;24.10;50.90;;;;;;1601897;73;1087;-64
2021/12/14 07:11:03;;;;;;;;;;;24.10;50.90;;;;;;1600882;73;1884;-63
2021/12/14 07:13:18;;;;;;;;;;;24.10;50.90;;;;;;1600145;74;1921;-63
2021/12/14 07:15:25;;;;;;;;;;;24.20;50.80;;;;;;1603586;73;767;-63
2021/12/14 07:17:31;;;;;;;;;;;24.10;50.90;;;;;;1587088;73;1560;-64
2021/12/14 07:19:43;;;;;;;;;;;24.00;50.70;;;;;;1594386;74;1131;-63
2021/12/14 07:21:46;;;;;;;;;;;24.00;50.70;;;;;;1590948;74;698;-63
2021/12/14 07:23:48;;;;;;;;;;;24.00;50.70;;;;;;1597463;74;791;-63
2021/12/14 07:26:01;;;;;;;;;;;24.00;50.70;;;;;;1603206;74;819;-63
2021/12/14 07:28:06;;;;;;;;;;;24.10;50.80;;;;;;1595005;73;788;-63
2021/12/14 07:30:10;;;;;;;;;;;24.00;50.80;;;;;;1605711;73;1145;-63
2021/12/14 07:32:11;;;;;;;;;;;24.00;50.70;;;;;;1601495;73;1936;-63
2021/12/14 07:34:13;;;;;;;;;;;24.00;50.70;;;;;;1603116;74;811;-63
2021/12/14 07:36:26;;;;;;;;;;;24.00;50.70;;;;;;1595641;73;759;-63
2021/12/14 07:38:29;;;;;;;;;;;24.00;50.70;;;;;;1594539;73;767;-63
2021/12/14 07:40:33;;;;;;;;;;;24.00;50.70;;;;;;1603546;73;1136;-64
2021/12/14 07:42:35;;;;;;;;;;;24.00;50.70;;;;;;1599821;74;1792;-63
2021/12/14 07:44:39;;;;;;;;;;;24.00;50.70;;;;;;1603589;73;776;-63
2021/12/14 07:46:45;;;;;;;;;;;24.00;50.70;;;;;;1597039;74;707;-61
2021/12/14 07:48:48;;;;;;;;;;;24.00;50.70;;;;;;1598541;73;771;-63
2021/12/14 07:50:51;;;;;;;;;;;23.90;50.60;;;;;;1591720;73;1126;-65
2021/12/14 07:52:53;;;;;;;;;;;23.90;50.70;;;;;;1597480;72;1932;-63
2021/12/14 07:54:58;;;;;;;;;;;24.00;50.60;;;;;;1617580;72;691;-63
2021/12/14 07:57:01;;;;;;;;;;;24.00;50.70;;;;;;1599695;74;841;-64
2021/12/14 07:59:04;;;;;;;;;;;23.90;50.60;;;;;;1603377;73;1135;-64
2021/12/14 08:01:06;;;;;;;;;;;24.00;50.60;;;;;;1597977;74;1860;-64
2021/12/14 08:03:08;;;;;;;;;;;24.00;50.60;;;;;;1591971;74;780;-63
2021/12/14 08:05:22;;;;;;;;;;;24.00;50.50;;;;;;1589579;74;731;-63
2021/12/14 08:07:26;;;;;;;;;;;24.00;50.60;;;;;;1599769;73;1807;-64
2021/12/14 08:09:52;;;;;;;;;;;24.00;50.50;;;;;;1595423;74;1152;-63
2021/12/14 08:11:54;;;;;;;;;;;24.00;50.60;;;;;;1589844;74;1897;-64
2021/12/14 08:14:00;;;;;;;;;;;24.00;50.60;;;;;;1593609;73;829;-64
2021/12/14 08:16:02;;;;;;;;;;;24.00;50.60;;;;;;1598102;74;872;-64
2021/12/14 08:18:05;;;;;;;;;;;24.00;50.60;;;;;;1596899;74;637;-64
2021/12/14 08:20:08;;;;;;;;;;;24.00;50.60;;;;;;1603554;74;1160;-63
2021/12/14 08:22:12;;;;;;;;;;;23.90;50.50;;;;;;1597700;73;793;-63
2021/12/14 08:24:14;;;;;;;;;;;24.00;50.50;;;;;;1602434;73;635;-63
2021/12/14 08:26:17;;;;;;;;;;;24.00;50.50;;;;;;1587540;74;713;-64
2021/12/14 08:28:21;;;;;;;;;;;24.00;50.50;;;;;;1584841;73;687;-63
2021/12/14 08:30:23;;;;;;;;;;;24.00;50.50;;;;;;1588410;73;1140;-63
2021/12/14 08:32:26;;;;;;;;;;;24.00;50.40;;;;;;1592194;74;1933;-64
2021/12/14 08:34:29;;;;;;;;;;;24.00;50.40;;;;;;1585825;74;1760;-64
2021/12/14 08:36:35;;;;;;;;;;;24.10;50.60;;;;;;1592066;73;767;-64
2021/12/14 08:38:37;;;;;;;;;;;24.00;50.40;;;;;;1593477;73;662;-64
2021/12/14 08:40:41;;;;;;;;;;;24.10;50.50;;;;;;1535309;72;2095;-75
2021/12/14 08:42:51;;;;;;;;;;;24.10;50.50;;;;;;1513504;78;750;-71
2021/12/14 08:44:54;;;;;;;;;;;24.00;50.40;;;;;;1562829;75;1545;-71
2021/12/14 08:46:53;;;;;;;;;;;24.10;50.40;;;;;;1563009;75;1615;-72
2021/12/14 08:48:56;;;;;;;;;;;24.10;50.40;;;;;;1562994;75;712;-71
2021/12/14 08:51:12;;;;;;;;;;;24.10;50.40;;;;;;1560034;75;1102;-72
2021/12/14 08:53:09;;;;;;;;;;;24.10;50.30;;;;;;1568920;75;1934;-71
2021/12/14 08:55:12;;;;;;;;;;;24.00;50.20;;;;;;1573332;75;810;-71
2021/12/14 08:57:15;;;;;;;;;;;24.10;50.30;;;;;;1577594;75;762;-71
2021/12/14 08:59:17;;;;;;;;;;;24.10;50.30;;;;;;1567917;75;1151;-71
2021/12/14 09:01:20;;;;;;;;;;;24.10;50.30;;;;;;1566449;75;661;-71
2021/12/14 09:03:32;;;;;;;;;;;24.10;50.20;;;;;;1568629;75;799;-71
2021/12/14 09:05:33;;;;;;;;;;;24.10;50.20;;;;;;1574080;75;1638;-71
2021/12/14 09:07:34;;;;;;;;;;;24.10;50.20;;;;;;1577382;75;698;-73
2021/12/14 09:09:37;;;;;;;;;;;24.10;50.20;;;;;;1580173;75;1140;-71
2021/12/14 09:11:40;;;;;;;;;;;24.10;50.20;;;;;;1555709;75;755;-72
2021/12/14 09:13:41;;;;;;;;;;;24.10;50.20;;;;;;1558444;75;1939;-71
2021/12/14 09:15:45;;;;;;;;;;;24.00;50.00;;;;;;1559835;74;729;-71
2021/12/14 09:17:47;;;;;;;;;;;24.10;50.20;;;;;;1558814;75;730;-71
2021/12/14 09:19:50;;;;;;;;;;;24.10;50.10;;;;;;1566772;75;1151;-72
2021/12/14 09:21:54;;;;;;;;;;;24.10;50.10;;;;;;1575737;75;722;-72
2021/12/14 09:23:58;;;;;;;;;;;24.10;50.10;;;;;;1575655;75;651;-73
2021/12/14 09:26:03;;;;;;;;;;;24.10;50.10;;;;;;1565170;75;744;-73
2021/12/14 09:28:04;;;;;;;;;;;24.10;50.10;;;;;;1570293;75;1653;-71
2021/12/14 09:30:06;;;;;;;;;;;24.20;50.10;;;;;;1576237;75;1223;-71
2021/12/14 09:32:09;;;;;;;;;;;24.20;50.10;;;;;;1574744;75;1922;-72
2021/12/14 09:34:12;;;;;;;;;;;24.20;50.10;;;;;;1569759;75;757;-72
2021/12/14 09:36:14;;;;;;;;;;;24.20;50.10;;;;;;1574503;75;797;-71
2021/12/14 09:38:18;;;;;;;;;;;24.20;50.00;;;;;;1570070;75;750;-71
2021/12/14 09:40:24;;;;;;;;;;;24.20;49.90;;;;;;1572514;74;1148;-71
2021/12/14 09:42:29;;;;;;;;;;;24.20;49.90;;;;;;1578520;75;1726;-71
2021/12/14 09:44:32;;;;;;;;;;;24.30;50.00;;;;;;1571981;75;747;-74
2021/12/14 09:46:33;;;;;;;;;;;24.20;49.90;;;;;;1573113;75;717;-72
2021/12/14 09:48:37;;;;;;;;;;;24.20;49.80;;;;;;1562816;75;814;-73
2021/12/14 09:50:39;;;;;;;;;;;24.20;49.80;;;;;;1578454;74;1170;-71
2021/12/14 09:52:43;;;;;;;;;;;24.20;49.80;;;;;;1571818;75;1954;-72
2021/12/14 09:54:45;;;;;;;;;;;24.20;49.80;;;;;;1579249;75;813;-71
2021/12/14 09:56:48;;;;;;;;;;;24.20;49.80;;;;;;1569839;75;756;-71
2021/12/14 09:58:51;;;;;;;;;;;24.30;50.00;;;;;;1579456;75;700;-70
2021/12/14 10:01:00;;;;;;;;;;;24.20;49.80;;;;;;1567439;74;1103;-70
2021/12/14 10:03:02;;;;;;;;;;;24.30;49.90;;;;;;1566499;75;832;-70
2021/12/14 10:05:06;;;;;;;;;;;24.30;49.80;;;;;;1562698;75;721;-70
2021/12/14 10:07:09;;;;;;;;;;;24.50;49.90;;;;;;1557938;75;729;-70
2021/12/14 10:09:12;;;;;;;;;;;24.40;49.70;;;;;;1565524;75;778;-70
2021/12/14 10:11:23;;;;;;;;;;;24.40;49.70;;;;;;1572037;75;826;-70
2021/12/14 10:13:19;;;;;;;;;;;24.50;49.70;;;;;;1572513;75;1902;-70
2021/12/14 10:15:23;;;;;;;;;;;24.50;49.70;;;;;;1573750;75;782;-72
2021/12/14 10:17:25;;;;;;;;;;;24.50;49.70;;;;;;1569271;75;742;-70
2021/12/14 10:19:28;;;;;;;;;;;24.50;49.80;;;;;;1570813;75;1159;-70
2021/12/14 10:21:32;;;;;;;;;;;24.50;49.80;;;;;;1578292;75;781;-70
2021/12/14 10:23:34;;;;;;;;;;;24.50;49.80;;;;;;1578933;75;1794;-72
2021/12/14 10:25:36;;;;;;;;;;;24.40;49.80;;;;;;1563160;75;851;-72
2021/12/14 10:27:38;;;;;;;;;;;24.40;49.70;;;;;;1578233;75;819;-70
2021/12/14 10:29:40;;;;;;;;;;;24.50;49.80;;;;;;1565027;74;1123;-70
2021/12/14 10:31:44;;;;;;;;;;;24.50;49.90;;;;;;1579729;75;690;-73
2021/12/14 10:33:46;;;;;;;;;;;24.50;49.80;;;;;;1578283;75;1930;-72
2021/12/14 10:35:51;;;;;;;;;;;24.60;49.60;;;;;;1572249;75;795;-70
2021/12/14 10:37:56;;;;;;;;;;;24.60;49.60;;;;;;1574644;75;1780;-70
2021/12/14 10:44:39;;;;;;;;;;;24.60;49.50;;;;;;1567223;75;758;-71
2021/12/14 10:46:48;;;;;;;;;;;24.60;49.50;;;;;;1551199;75;745;-72
2021/12/14 10:48:47;;;;;;;;;;;24.70;49.60;;;;;;1573172;75;1487;-71
2021/12/14 10:50:49;;;;;;;;;;;24.70;49.50;;;;;;1568999;75;1133;-71
2021/12/14 10:52:51;;;;;;;;;;;24.70;49.50;;;;;;1572263;75;1935;-71
2021/12/14 10:54:54;;;;;;;;;;;24.70;49.40;;;;;;1575719;75;717;-71
2021/12/14 10:56:58;;;;;;;;;;;24.70;49.40;;;;;;1574922;75;777;-70
2021/12/14 10:59:00;;;;;;;;;;;24.60;49.30;;;;;;1577694;75;1135;-72
2021/12/14 11:01:04;;;;;;;;;;;24.60;49.30;;;;;;1557998;75;1094;-71
2021/12/14 11:03:11;;;;;;;;;;;24.70;49.40;;;;;;1563592;75;743;-71
2021/12/14 11:05:19;;;;;;;;;;;24.70;49.40;;;;;;1561613;75;629;-70
2021/12/14 11:07:18;;;;;;;;;;;24.70;49.50;;;;;;1576955;75;1585;-73
2021/12/14 11:09:42;;;;;;;;;;;24.70;49.50;;;;;;1578125;74;1119;-70
2021/12/14 11:11:47;;;;;;;;;;;24.70;49.40;;;;;;1575855;75;1676;-70
2021/12/14 11:13:50;;;;;;;;;;;24.70;49.50;;;;;;1567108;75;1925;-70
2021/12/14 11:15:54;;;;;;;;;;;24.60;49.40;;;;;;1577091;75;1812;-71
2021/12/14 11:18:09;;;;;;;;;;;24.60;49.50;;;;;;1569492;75;824;-71
2021/12/14 11:20:15;;;;;;;;;;;24.60;49.50;;;;;;1564447;75;1163;-71
2021/12/14 11:22:18;;;;;;;;;;;24.60;49.60;;;;;;1579267;75;698;-71
2021/12/14 11:24:22;;;;;;;;;;;24.50;49.60;;;;;;1578820;75;774;-71
2021/12/14 11:26:27;;;;;;;;;;;24.50;49.80;;;;;;1579283;75;773;-71
2021/12/14 11:28:33;;;;;;;;;;;24.50;49.60;;;;;;1571489;75;1961;-71
2021/12/14 11:30:37;;;;;;;;;;;24.50;49.60;;;;;;1578555;74;1158;-71
2021/12/14 11:32:42;;;;;;;;;;;24.50;49.70;;;;;;1571737;75;693;-71
2021/12/14 11:34:45;;;;;;;;;;;24.50;49.70;;;;;;1576993;75;1914;-71
2021/12/14 11:36:47;;;;;;;;;;;24.40;49.60;;;;;;1573798;75;1653;-70
2021/12/14 11:38:53;;;;;;;;;;;24.50;49.70;;;;;;1574298;75;1824;-71
2021/12/14 11:40:56;;;;;;;;;;;24.40;49.60;;;;;;1581646;74;1947;-71
2021/12/14 11:43:11;;;;;;;;;;;24.40;49.60;;;;;;1557370;75;838;-71
2021/12/14 11:45:17;;;;;;;;;;;24.30;49.60;;;;;;1574855;75;720;-71
2021/12/14 11:49:46;;;;;;;;;;;24.40;49.60;;;;;;1578202;75;1132;-71
2021/12/14 11:51:48;;;;;;;;;;;24.40;49.70;;;;;;1567065;75;727;-72
2021/12/14 11:53:51;;;;;;;;;;;24.40;49.60;;;;;;1578248;75;1954;-71
2021/12/14 11:55:58;;;;;;;;;;;24.30;49.70;;;;;;1572437;75;745;-71
2021/12/14 11:58:19;;;;;;;;;;;24.30;49.70;;;;;;1576115;75;711;-71
2021/12/14 12:00:22;;;;;;;;;;;24.30;49.60;;;;;;1573232;75;1188;-73
2021/12/14 12:02:24;;;;;;;;;;;24.30;49.60;;;;;;1580226;75;720;-72
2021/12/14 12:04:34;;;;;;;;;;;24.30;49.70;;;;;;1575652;75;659;-69
2021/12/14 12:06:43;;;;;;;;;;;24.30;49.70;;;;;;1578037;75;1695;-72
2021/12/14 12:10:57;;;;;;;;;;;24.30;49.60;;;;;;1577376;74;1885;-71
2021/12/14 12:12:58;;;;;;;;;;;24.30;49.70;;;;;;1562706;75;1938;-73
2021/12/14 12:15:05;;;;;;;;;;;24.30;49.70;;;;;;1573331;75;820;-70
2021/12/14 12:17:18;;;;;;;;;;;24.30;49.70;;;;;;1578960;75;676;-72
2021/12/14 12:19:21;;;;;;;;;;;24.20;49.50;;;;;;1574565;74;1168;-71
2021/12/14 12:21:29;;;;;;;;;;;24.20;49.50;;;;;;1574572;75;637;-71
2021/12/14 12:23:31;;;;;;;;;;;24.30;49.70;;;;;;1579590;75;704;-70
2021/12/14 12:25:35;;;;;;;;;;;24.20;49.50;;;;;;1560068;75;1012;-70
2021/12/14 12:27:41;;;;;;;;;;;24.20;49.60;;;;;;1562906;75;1630;-74
2021/12/14 12:29:43;;;;;;;;;;;24.20;49.50;;;;;;1562102;74;1164;-71
2021/12/14 12:31:55;;;;;;;;;;;24.20;49.50;;;;;;1569794;75;721;-71
2021/12/14 12:33:53;;;;;;;;;;;24.20;49.50;;;;;;1573116;75;1926;-71
2021/12/14 12:36:00;;;;;;;;;;;24.20;49.60;;;;;;1578138;75;1645;-66
2021/12/14 12:38:03;;;;;;;;;;;24.20;49.50;;;;;;1578348;75;752;-67
2021/12/14 12:40:08;;;;;;;;;;;24.20;49.60;;;;;;1574782;74;1613;-68
2021/12/14 12:42:09;;;;;;;;;;;24.20;49.50;;;;;;1574702;75;1671;-68
2021/12/14 12:44:13;;;;;;;;;;;24.20;49.50;;;;;;1575332;75;689;-70
2021/12/14 12:46:16;;;;;;;;;;;24.20;49.50;;;;;;1579448;75;800;-70
2021/12/14 12:48:36;;;;;;;;;;;24.20;49.50;;;;;;1561987;75;757;-70
2021/12/14 12:50:38;;;;;;;;;;;24.20;49.50;;;;;;1557500;75;1156;-71
2021/12/14 12:52:41;;;;;;;;;;;24.20;49.50;;;;;;1567359;74;787;-69